Time;durP1;ratioP1;P1;durP2;ratioP2;P2;SDS_P1;SDS_P2;PMS_P1;PMS_P2;Temp;Humidity;BMP_temperature;BMP_pressure;BME280_temperature;BME280_humidity;BME280_pressure;Samples;Min_cycle;Max_cycle;Signal;HPM_P1;HPM_P2
2022/02/04 00:07:08;;;;;;;;;;;;;;;;;;5117283;28;19919;-88
2022/02/04 00:20:29;;;;;;;;;;;;;;;;;;5116737;28;20427;-89
2022/02/04 00:27:49;;;;;;;;;;;;;;;;;;5098969;28;19916;-88
2022/02/04 00:30:24;;;;;;;;;;;;;;;;;;5078260;28;20436;-88
2022/02/04 00:32:51;;;;;;;;;;;;;;;;;;5078003;28;19913;-88
2022/02/04 00:38:08;;;;;;;;;;;;;;;;;;5095869;28;19908;-88
2022/02/04 00:40:38;;;;;;;;;;;;;;;;;;5077731;28;20367;-88
2022/02/04 00:43:07;;;;;;;;;;;;;;;;;;5077708;28;19912;-88
2022/02/04 00:45:46;;;;;;;;;;;;;;;;;;5077583;28;19930;-88
2022/02/04 00:51:23;;;;;;;;;;;;;;;;;;5075567;28;19912;-89
2022/02/04 00:53:49;;;;;;;;;;;;;;;;;;5071416;28;19916;-88
2022/02/04 01:28:26;;;;;;;;;;;;;;;;;;5075103;28;19908;-88
2022/02/04 01:30:51;;;;;;;;;;;;;;;;;;5056820;28;20112;-88
2022/02/04 01:33:16;;;;;;;;;;;;;;;;;;5081011;28;19994;-87
2022/02/04 01:35:41;;;;;;;;;;;;;;;;;;5076533;28;19908;-88
2022/02/04 01:38:07;;;;;;;;;;;;;;;;;;5094569;28;19957;-88
2022/02/04 01:40:32;;;;;;;;;;;;;;;;;;5076542;28;19916;-88
2022/02/04 01:42:59;;;;;;;;;;;;;;;;;;5094047;28;20200;-88
2022/02/04 01:45:24;;;;;;;;;;;;;;;;;;5076358;28;19908;-88
2022/02/04 01:47:55;;;;;;;;;;;;;;;;;;5077353;28;19904;-88
2022/02/04 01:50:20;;;;;;;;;;;;;;;;;;5096713;28;20278;-88
2022/02/04 01:52:45;;;;;;;;;;;;;;;;;;5096711;28;19908;-88
2022/02/04 01:55:11;;;;;;;;;;;;;;;;;;5096957;28;19976;-88
2022/02/04 01:57:36;;;;;;;;;;;;;;;;;;5096411;28;20320;-87
2022/02/04 02:00:01;;;;;;;;;;;;;;;;;;5096346;28;20019;-88
2022/02/04 02:02:26;;;;;;;;;;;;;;;;;;5096449;28;19914;-88
2022/02/04 02:04:51;;;;;;;;;;;;;;;;;;5096177;28;19914;-88
2022/02/04 02:07:20;;;;;;;;;;;;;;;;;;5096306;28;19912;-88
2022/02/04 02:09:57;;;;;;;;;;;;;;;;;;5096248;28;19908;-88
2022/02/04 02:12:26;;;;;;;;;;;;;;;;;;5056013;28;20279;-88
2022/02/04 02:15:03;;;;;;;;;;;;;;;;;;5055933;28;19909;-88
2022/02/04 02:49:34;;;;;;;;;;;;;;;;;;5077760;28;19916;-87
2022/02/04 02:59:21;;;;;;;;;;;;;;;;;;5076228;28;19908;-88
2022/02/04 03:01:49;;;;;;;;;;;;;;;;;;5077389;28;20005;-88
2022/02/04 03:04:16;;;;;;;;;;;;;;;;;;5059555;28;19908;-88
2022/02/04 03:06:41;;;;;;;;;;;;;;;;;;5059546;28;19908;-88
2022/02/04 03:09:06;;;;;;;;;;;;;;;;;;5077338;28;20000;-88
2022/02/04 03:11:33;;;;;;;;;;;;;;;;;;5091975;28;20010;-88
2022/02/04 03:13:58;;;;;;;;;;;;;;;;;;5099637;28;20324;-88
2022/02/04 03:16:23;;;;;;;;;;;;;;;;;;5116569;28;19912;-88
2022/02/04 03:18:51;;;;;;;;;;;;;;;;;;5099814;28;20338;-88
2022/02/04 03:21:21;;;;;;;;;;;;;;;;;;5099475;28;19912;-88
2022/02/04 03:24:09;;;;;;;;;;;;;;;;;;5099833;28;19956;-88
2022/02/04 03:29:05;;;;;;;;;;;;;;;;;;5118065;28;19908;-88
2022/02/04 03:31:36;;;;;;;;;;;;;;;;;;5099115;28;19908;-88
2022/02/04 03:34:03;;;;;;;;;;;;;;;;;;5099140;28;20062;-87
2022/02/04 03:36:28;;;;;;;;;;;;;;;;;;5099410;28;19907;-88
2022/02/04 03:38:53;;;;;;;;;;;;;;;;;;5093163;28;19932;-88
2022/02/04 03:41:18;;;;;;;;;;;;;;;;;;5076666;28;19923;-88
2022/02/04 03:43:43;;;;;;;;;;;;;;;;;;5075454;28;19919;-88
2022/02/04 03:46:08;;;;;;;;;;;;;;;;;;5075551;28;19936;-88
2022/02/04 03:48:33;;;;;;;;;;;;;;;;;;5075491;28;19916;-88
2022/02/04 03:50:58;;;;;;;;;;;;;;;;;;5075415;28;20279;-87
2022/02/04 03:53:23;;;;;;;;;;;;;;;;;;5075343;28;20267;-88
2022/02/04 03:55:49;;;;;;;;;;;;;;;;;;5075219;28;19915;-88
2022/02/04 03:58:14;;;;;;;;;;;;;;;;;;5075194;28;19908;-87
2022/02/04 04:00:39;;;;;;;;;;;;;;;;;;5074730;28;20690;-88
2022/02/04 04:03:04;;;;;;;;;;;;;;;;;;5080285;28;19912;-88
2022/02/04 04:05:29;;;;;;;;;;;;;;;;;;5097195;28;20408;-88
2022/02/04 04:07:55;;;;;;;;;;;;;;;;;;5097383;28;19915;-88
2022/02/04 04:10:23;;;;;;;;;;;;;;;;;;5096341;28;19912;-88
2022/02/04 04:12:48;;;;;;;;;;;;;;;;;;5097431;28;19911;-88
2022/02/04 04:15:14;;;;;;;;;;;;;;;;;;5096666;28;19915;-88
2022/02/04 04:17:44;;;;;;;;;;;;;;;;;;5097143;28;19991;-88
2022/02/04 04:20:09;;;;;;;;;;;;;;;;;;5096882;28;19948;-88
2022/02/04 04:22:34;;;;;;;;;;;;;;;;;;5096763;28;19908;-88
2022/02/04 04:24:59;;;;;;;;;;;;;;;;;;5084134;28;19912;-87
2022/02/04 04:27:24;;;;;;;;;;;;;;;;;;5061535;28;20417;-88
2022/02/04 04:29:49;;;;;;;;;;;;;;;;;;5075750;28;20314;-88
2022/02/04 04:32:14;;;;;;;;;;;;;;;;;;5057855;28;19954;-88
2022/02/04 04:34:39;;;;;;;;;;;;;;;;;;5057844;28;19982;-88
2022/02/04 04:37:06;;;;;;;;;;;;;;;;;;5116234;28;19973;-88
2022/02/04 04:39:38;;;;;;;;;;;;;;;;;;5098298;28;19912;-88
2022/02/04 04:42:15;;;;;;;;;;;;;;;;;;5098083;28;19911;-88
2022/02/04 05:29:10;;;;;;;;;;;;;;;;;;5093673;28;19954;-88
2022/02/04 05:31:01;;;;;;;;;;;;;;;;;;5075382;28;19947;-88
2022/02/04 05:33:26;;;;;;;;;;;;;;;;;;5075405;28;19947;-88
2022/02/04 05:35:51;;;;;;;;;;;;;;;;;;5075027;28;20025;-88
2022/02/04 05:38:17;;;;;;;;;;;;;;;;;;5075108;28;19912;-87
2022/02/04 05:40:45;;;;;;;;;;;;;;;;;;5076382;28;19957;-88
2022/02/04 05:43:17;;;;;;;;;;;;;;;;;;5076392;28;19916;-87
2022/02/04 05:45:51;;;;;;;;;;;;;;;;;;5076228;28;20260;-87
2022/02/04 05:48:17;;;;;;;;;;;;;;;;;;5076661;28;19908;-88
2022/02/04 05:51:04;;;;;;;;;;;;;;;;;;5076354;28;19938;-88
2022/02/04 05:53:37;;;;;;;;;;;;;;;;;;5076314;28;20279;-88
2022/02/04 05:56:15;;;;;;;;;;;;;;;;;;5076173;28;19919;-87
2022/02/04 06:03:55;;;;;;;;;;;;;;;;;;5075807;28;20311;-87
2022/02/04 06:24:34;;;;;;;;;;;;;;;;;;5114480;28;20321;-88
2022/02/04 06:26:59;;;;;;;;;;;;;;;;;;5096085;28;20344;-88
2022/02/04 06:29:24;;;;;;;;;;;;;;;;;;5094965;28;19961;-88
2022/02/04 06:31:49;;;;;;;;;;;;;;;;;;5095872;28;19912;-87
2022/02/04 06:34:14;;;;;;;;;;;;;;;;;;5095279;28;19923;-87
2022/02/04 06:36:39;;;;;;;;;;;;;;;;;;5095946;28;19935;-88
2022/02/04 06:39:04;;;;;;;;;;;;;;;;;;5095822;28;19915;-88
2022/02/04 06:41:29;;;;;;;;;;;;;;;;;;5095818;28;19912;-88
2022/02/04 06:43:55;;;;;;;;;;;;;;;;;;5094739;28;19912;-87
2022/02/04 06:46:20;;;;;;;;;;;;;;;;;;5095576;28;20314;-88
2022/02/04 06:48:45;;;;;;;;;;;;;;;;;;5095921;28;20006;-87
2022/02/04 06:51:10;;;;;;;;;;;;;;;;;;5095755;28;19918;-87
2022/02/04 06:53:35;;;;;;;;;;;;;;;;;;5095871;28;20347;-88
2022/02/04 06:56:00;;;;;;;;;;;;;;;;;;5095493;28;19912;-88
2022/02/04 06:58:26;;;;;;;;;;;;;;;;;;5095679;28;19912;-88
2022/02/04 07:00:51;;;;;;;;;;;;;;;;;;5094237;28;19919;-88
2022/02/04 07:03:16;;;;;;;;;;;;;;;;;;5113794;28;19912;-88
2022/02/04 07:05:52;;;;;;;;;;;;;;;;;;5079276;28;19917;-87
2022/02/04 07:08:23;;;;;;;;;;;;;;;;;;5075233;28;19943;-88
2022/02/04 07:13:48;;;;;;;;;;;;;;;;;;5093833;28;20014;-88
2022/02/04 07:21:34;;;;;;;;;;;;;;;;;;5093172;28;19962;-88
2022/02/04 07:23:59;;;;;;;;;;;;;;;;;;5074942;28;19947;-88
2022/02/04 07:26:24;;;;;;;;;;;;;;;;;;5075753;28;19920;-88
2022/02/04 07:28:49;;;;;;;;;;;;;;;;;;5082845;28;19935;-89
2022/02/04 07:31:16;;;;;;;;;;;;;;;;;;5093478;28;19908;-89
2022/02/04 07:33:45;;;;;;;;;;;;;;;;;;5074966;28;19923;-89
2022/02/04 07:41:37;;;;;;;;;;;;;;;;;;5093530;28;19912;-89
2022/02/04 07:44:03;;;;;;;;;;;;;;;;;;5095471;28;19908;-90
2022/02/04 07:46:28;;;;;;;;;;;;;;;;;;5083715;28;19916;-90
2022/02/04 07:48:53;;;;;;;;;;;;;;;;;;5067872;28;19912;-89
2022/02/04 07:51:18;;;;;;;;;;;;;;;;;;5077638;28;19953;-89
2022/02/04 07:53:43;;;;;;;;;;;;;;;;;;5078733;28;19912;-90
2022/02/04 07:56:08;;;;;;;;;;;;;;;;;;5078652;28;19908;-89
2022/02/04 07:58:34;;;;;;;;;;;;;;;;;;5078771;28;19934;-90
2022/02/04 08:01:00;;;;;;;;;;;;;;;;;;5078765;28;19918;-89
2022/02/04 08:05:59;;;;;;;;;;;;;;;;;;5096739;28;20314;-89
2022/02/04 08:08:36;;;;;;;;;;;;;;;;;;5078379;28;19973;-89
2022/02/04 08:22:10;;;;;;;;;;;;;;;;;;5096582;28;19912;-89
2022/02/04 08:33:09;;;;;;;;;;;;;;;;;;5086701;28;20324;-90
2022/02/04 08:38:37;;;;;;;;;;;;;;;;;;5110672;28;19911;-89
2022/02/04 08:49:42;;;;;;;;;;;;;;;;;;5116316;28;19915;-90
2022/02/04 08:54:37;;;;;;;;;;;;;;;;;;5116514;28;19908;-89
2022/02/04 08:57:50;;;;;;;;;;;;;;;;;;5097529;28;20363;-89
2022/02/04 09:02:38;;;;;;;;;;;;;;;;;;5095790;28;19934;-90
2022/02/04 09:05:04;;;;;;;;;;;;;;;;;;5077701;28;20005;-90
2022/02/04 09:07:37;;;;;;;;;;;;;;;;;;5058528;28;19913;-90
2022/02/04 09:10:11;;;;;;;;;;;;;;;;;;5074403;28;19939;-89
2022/02/04 09:20:33;;;;;;;;;;;;;;;;;;5094933;28;19919;-85
2022/02/04 09:22:58;;;;;;;;;;;;;;;;;;5062396;28;19919;-86
2022/02/04 09:25:24;;;;;;;;;;;;;;;;;;5082280;28;19911;-87
2022/02/04 09:27:49;;;;;;;;;;;;;;;;;;5094973;28;20057;-88
2022/02/04 09:30:15;;;;;;;;;;;;;;;;;;5094825;28;19957;-87
2022/02/04 09:32:40;;;;;;;;;;;;;;;;;;5076806;28;19912;-87
2022/02/04 09:35:05;;;;;;;;;;;;;;;;;;5078811;28;19923;-87
2022/02/04 09:37:30;;;;;;;;;;;;;;;;;;5067551;28;19925;-88
2022/02/04 09:39:55;;;;;;;;;;;;;;;;;;5060711;28;19912;-89
2022/02/04 09:42:20;;;;;;;;;;;;;;;;;;5056692;28;19919;-88
2022/02/04 09:44:45;;;;;;;;;;;;;;;;;;5057153;28;19944;-89
2022/02/04 09:47:10;;;;;;;;;;;;;;;;;;5077518;28;19916;-89
2022/02/04 09:49:41;;;;;;;;;;;;;;;;;;5076510;28;19908;-88
2022/02/04 10:08:39;;;;;;;;;;;;;;;;;;5073657;28;19915;-89
2022/02/04 10:12:01;;;;;;;;;;;;;;;;;;5083593;28;19912;-88
2022/02/04 10:13:58;;;;;;;;;;;;;;;;;;5088258;28;20048;-89
2022/02/04 10:18:51;;;;;;;;;;;;;;;;;;5074351;28;20426;-89
2022/02/04 10:21:17;;;;;;;;;;;;;;;;;;5080868;28;19919;-86
2022/02/04 10:23:42;;;;;;;;;;;;;;;;;;5064399;28;19942;-88
2022/02/04 10:26:07;;;;;;;;;;;;;;;;;;5080947;28;19912;-88
2022/02/04 10:28:32;;;;;;;;;;;;;;;;;;5089813;28;19916;-89
2022/02/04 10:30:57;;;;;;;;;;;;;;;;;;5085951;28;19917;-88
2022/02/04 10:33:23;;;;;;;;;;;;;;;;;;5055816;28;19919;-88
2022/02/04 10:35:51;;;;;;;;;;;;;;;;;;5055954;28;19935;-88
2022/02/04 10:38:21;;;;;;;;;;;;;;;;;;5059772;28;19908;-88
2022/02/04 10:43:24;;;;;;;;;;;;;;;;;;5110472;28;19955;-88
2022/02/04 10:46:00;;;;;;;;;;;;;;;;;;5056221;28;20265;-88
2022/02/04 10:51:29;;;;;;;;;;;;;;;;;;5074048;28;19908;-88
2022/02/04 10:54:25;;;;;;;;;;;;;;;;;;5073434;28;20423;-87
2022/02/04 11:04:44;;;;;;;;;;;;;;;;;;5089917;28;19937;-88
2022/02/04 11:10:08;;;;;;;;;;;;;;;;;;5084056;28;19908;-88
2022/02/04 11:36:02;;;;;;;;;;;;;;;;;;5116461;28;19915;-88
2022/02/04 11:52:09;;;;;;;;;;;;;;;;;;5102981;28;19964;-87
2022/02/04 11:54:39;;;;;;;;;;;;;;;;;;5067014;28;19920;-86
2022/02/04 11:57:05;;;;;;;;;;;;;;;;;;5075279;28;19962;-86
2022/02/04 11:59:30;;;;;;;;;;;;;;;;;;5108405;28;19924;-87
2022/02/04 12:01:55;;;;;;;;;;;;;;;;;;5096288;28;20283;-88
2022/02/04 12:04:20;;;;;;;;;;;;;;;;;;5096952;28;19913;-86
2022/02/04 12:06:45;;;;;;;;;;;;;;;;;;5078463;28;19915;-87
2022/02/04 12:09:10;;;;;;;;;;;;;;;;;;5071152;28;19917;-87
2022/02/04 12:11:36;;;;;;;;;;;;;;;;;;5058478;28;19999;-88
2022/02/04 12:14:01;;;;;;;;;;;;;;;;;;5062852;28;19920;-88
2022/02/04 12:16:26;;;;;;;;;;;;;;;;;;5079243;28;19909;-89
2022/02/04 12:18:51;;;;;;;;;;;;;;;;;;5093548;28;20342;-86
2022/02/04 12:21:16;;;;;;;;;;;;;;;;;;5095545;28;19965;-91
2022/02/04 12:23:43;;;;;;;;;;;;;;;;;;5091141;28;19913;-91
2022/02/04 12:26:08;;;;;;;;;;;;;;;;;;5075565;28;19978;-91
2022/02/04 12:28:34;;;;;;;;;;;;;;;;;;5075535;28;19912;-91
2022/02/04 12:30:59;;;;;;;;;;;;;;;;;;5074970;28;19937;-91
2022/02/04 12:33:24;;;;;;;;;;;;;;;;;;5075387;28;20387;-91
2022/02/04 12:35:49;;;;;;;;;;;;;;;;;;5075277;28;20241;-91
2022/02/04 12:38:14;;;;;;;;;;;;;;;;;;5083166;28;19920;-91
2022/02/04 12:40:39;;;;;;;;;;;;;;;;;;5092121;28;19919;-92
2022/02/04 12:43:04;;;;;;;;;;;;;;;;;;5092225;28;19916;-91
2022/02/04 12:45:29;;;;;;;;;;;;;;;;;;5076716;28;20046;-91
2022/02/04 12:47:55;;;;;;;;;;;;;;;;;;5076308;28;19919;-91
2022/02/04 12:50:20;;;;;;;;;;;;;;;;;;5091964;28;20022;-91
2022/02/04 12:52:46;;;;;;;;;;;;;;;;;;5091831;28;19909;-91
2022/02/04 12:55:32;;;;;;;;;;;;;;;;;;5094488;28;19955;-91
2022/02/04 12:58:13;;;;;;;;;;;;;;;;;;5096339;28;19915;-91
2022/02/04 13:03:18;;;;;;;;;;;;;;;;;;5117043;28;19908;-91
2022/02/04 13:08:41;;;;;;;;;;;;;;;;;;5116644;28;19956;-91
2022/02/04 13:11:08;;;;;;;;;;;;;;;;;;5116668;28;19914;-91
2022/02/04 13:13:45;;;;;;;;;;;;;;;;;;5098341;28;19951;-91
2022/02/04 13:16:10;;;;;;;;;;;;;;;;;;5096103;28;19991;-91
2022/02/04 13:18:36;;;;;;;;;;;;;;;;;;5058297;28;19940;-90
2022/02/04 13:21:01;;;;;;;;;;;;;;;;;;5077956;28;20002;-91
2022/02/04 13:23:26;;;;;;;;;;;;;;;;;;5077874;28;19908;-91
2022/02/04 13:25:51;;;;;;;;;;;;;;;;;;5080754;28;19936;-91
2022/02/04 13:28:17;;;;;;;;;;;;;;;;;;5075399;28;19916;-91
2022/02/04 13:30:42;;;;;;;;;;;;;;;;;;5077655;28;20081;-91
2022/02/04 13:33:07;;;;;;;;;;;;;;;;;;5090117;28;19919;-91
2022/02/04 13:35:35;;;;;;;;;;;;;;;;;;5074209;28;19923;-91
2022/02/04 13:38:03;;;;;;;;;;;;;;;;;;5074240;28;20253;-91
2022/02/04 13:40:34;;;;;;;;;;;;;;;;;;5075260;28;19958;-92
2022/02/04 13:43:04;;;;;;;;;;;;;;;;;;5075196;28;20419;-91
2022/02/04 13:45:38;;;;;;;;;;;;;;;;;;5091095;28;19909;-90
2022/02/04 13:48:08;;;;;;;;;;;;;;;;;;5091067;28;19908;-91
2022/02/04 13:51:01;;;;;;;;;;;;;;;;;;5090995;28;20371;-92
2022/02/04 13:54:03;;;;;;;;;;;;;;;;;;5085546;28;19912;-92
2022/02/04 13:56:30;;;;;;;;;;;;;;;;;;5072183;28;20003;-91
2022/02/04 13:58:57;;;;;;;;;;;;;;;;;;5057536;28;19915;-93
2022/02/04 14:01:28;;;;;;;;;;;;;;;;;;5057487;28;19916;-92
2022/02/04 14:03:54;;;;;;;;;;;;;;;;;;5075902;28;19916;-92
2022/02/04 14:06:25;;;;;;;;;;;;;;;;;;5078023;28;19912;-93
2022/02/04 14:08:57;;;;;;;;;;;;;;;;;;5105191;28;19912;-93
2022/02/04 14:11:22;;;;;;;;;;;;;;;;;;5083194;28;19912;-93
2022/02/04 14:13:47;;;;;;;;;;;;;;;;;;5077664;28;19946;-92
2022/02/04 14:16:13;;;;;;;;;;;;;;;;;;5073901;28;19912;-92
2022/02/04 14:18:39;;;;;;;;;;;;;;;;;;5057658;28;19912;-92
2022/02/04 14:21:04;;;;;;;;;;;;;;;;;;5057421;28;19920;-93
2022/02/04 14:23:29;;;;;;;;;;;;;;;;;;5057851;28;20323;-93
2022/02/04 14:25:59;;;;;;;;;;;;;;;;;;5075665;28;19999;-93
2022/02/04 14:28:31;;;;;;;;;;;;;;;;;;5057708;28;19908;-93
2022/02/04 14:31:03;;;;;;;;;;;;;;;;;;5057634;28;19988;-92
2022/02/04 14:36:19;;;;;;;;;;;;;;;;;;5075917;28;19912;-93
2022/02/04 15:03:03;;;;;;;;;;;;;;;;;;5074892;28;19920;-93
2022/02/04 15:05:36;;;;;;;;;;;;;;;;;;5084917;28;19946;-92
2022/02/04 15:08:05;;;;;;;;;;;;;;;;;;5090805;28;20287;-92
2022/02/04 15:10:31;;;;;;;;;;;;;;;;;;5090160;28;20013;-93
2022/02/04 15:12:57;;;;;;;;;;;;;;;;;;5090282;28;19915;-92
2022/02/04 15:15:22;;;;;;;;;;;;;;;;;;5107264;28;20026;-92
2022/02/04 15:17:47;;;;;;;;;;;;;;;;;;5076710;28;19908;-92
2022/02/04 15:20:12;;;;;;;;;;;;;;;;;;5076487;28;20317;-91
2022/02/04 15:22:37;;;;;;;;;;;;;;;;;;5076327;28;19930;-92
2022/02/04 15:25:11;;;;;;;;;;;;;;;;;;5089279;28;20305;-92
2022/02/04 15:27:39;;;;;;;;;;;;;;;;;;5096696;28;19919;-92
2022/02/04 15:30:05;;;;;;;;;;;;;;;;;;5095554;28;20329;-92
2022/02/04 15:32:30;;;;;;;;;;;;;;;;;;5076054;28;20406;-92
2022/02/04 15:34:55;;;;;;;;;;;;;;;;;;5076409;28;20007;-93
2022/02/04 15:37:20;;;;;;;;;;;;;;;;;;5094221;28;20303;-92
2022/02/04 15:39:45;;;;;;;;;;;;;;;;;;5076210;28;20046;-92
2022/02/04 15:42:13;;;;;;;;;;;;;;;;;;5059217;28;19921;-92
2022/02/04 15:44:44;;;;;;;;;;;;;;;;;;5089737;28;19995;-91
2022/02/04 15:47:22;;;;;;;;;;;;;;;;;;5089879;28;19993;-91
2022/02/04 15:58:18;;;;;;;;;;;;;;;;;;5094560;28;19912;-91
2022/02/04 16:05:42;;;;;;;;;;;;;;;;;;5093832;28;20396;-92
2022/02/04 16:08:09;;;;;;;;;;;;;;;;;;5073945;28;19913;-91
2022/02/04 16:10:49;;;;;;;;;;;;;;;;;;5061706;28;19908;-93
2022/02/04 16:13:28;;;;;;;;;;;;;;;;;;5075870;28;19912;-90
2022/02/04 16:16:08;;;;;;;;;;;;;;;;;;5070585;28;19995;-91
2022/02/04 16:18:40;;;;;;;;;;;;;;;;;;5078948;28;20300;-91
2022/02/04 16:21:22;;;;;;;;;;;;;;;;;;5071106;28;19982;-91
2022/02/04 16:23:58;;;;;;;;;;;;;;;;;;5077987;28;19916;-92
2022/02/04 16:26:46;;;;;;;;;;;;;;;;;;5078874;28;20355;-91
2022/02/04 16:29:09;;;;;;;;;;;;;;;;;;5087329;28;19958;-91
2022/02/04 16:31:34;;;;;;;;;;;;;;;;;;5063207;28;19919;-91
2022/02/04 16:34:00;;;;;;;;;;;;;;;;;;5079216;28;19916;-91
2022/02/04 16:36:26;;;;;;;;;;;;;;;;;;5099690;27;19939;-90
2022/02/04 16:38:55;;;;;;;;;;;;;;;;;;5098995;28;20006;-90
2022/02/04 16:41:25;;;;;;;;;;;;;;;;;;5088643;28;19944;-90
2022/02/04 16:43:50;;;;;;;;;;;;;;;;;;5096986;28;20276;-91
2022/02/04 16:46:15;;;;;;;;;;;;;;;;;;5063870;28;20343;-91
2022/02/04 16:48:41;;;;;;;;;;;;;;;;;;5078740;28;20260;-91
2022/02/04 16:51:06;;;;;;;;;;;;;;;;;;5075620;28;19920;-91
2022/02/04 16:53:31;;;;;;;;;;;;;;;;;;5076275;28;19912;-90
2022/02/04 16:55:56;;;;;;;;;;;;;;;;;;5068802;28;19915;-90
2022/02/04 16:58:21;;;;;;;;;;;;;;;;;;5075043;28;19912;-90
2022/02/04 17:00:46;;;;;;;;;;;;;;;;;;5073439;28;20375;-91
2022/02/04 17:03:11;;;;;;;;;;;;;;;;;;5067827;28;19919;-90
2022/02/04 17:05:48;;;;;;;;;;;;;;;;;;5078292;28;19942;-90
2022/02/04 17:08:20;;;;;;;;;;;;;;;;;;5078272;28;20011;-90
2022/02/04 17:10:49;;;;;;;;;;;;;;;;;;5075736;28;19912;-91
2022/02/04 17:13:15;;;;;;;;;;;;;;;;;;5078080;28;20283;-91
2022/02/04 17:15:40;;;;;;;;;;;;;;;;;;5078133;28;19912;-91
2022/02/04 17:18:05;;;;;;;;;;;;;;;;;;5071667;28;19923;-91
2022/02/04 17:20:30;;;;;;;;;;;;;;;;;;5074239;28;19920;-90
2022/02/04 17:22:56;;;;;;;;;;;;;;;;;;5066142;28;19913;-90
2022/02/04 17:25:27;;;;;;;;;;;;;;;;;;5077397;28;19908;-90
2022/02/04 17:27:52;;;;;;;;;;;;;;;;;;5078635;28;19908;-89
2022/02/04 17:30:17;;;;;;;;;;;;;;;;;;5074215;28;19912;-92
2022/02/04 17:32:42;;;;;;;;;;;;;;;;;;5074249;28;19913;-90
2022/02/04 17:35:07;;;;;;;;;;;;;;;;;;5090299;28;20371;-89
2022/02/04 17:37:32;;;;;;;;;;;;;;;;;;5090912;28;19955;-89
2022/02/04 17:39:58;;;;;;;;;;;;;;;;;;5078625;28;19940;-91
2022/02/04 17:42:26;;;;;;;;;;;;;;;;;;5062017;28;19916;-91
2022/02/04 17:44:51;;;;;;;;;;;;;;;;;;5095668;28;19912;-91
2022/02/04 17:47:16;;;;;;;;;;;;;;;;;;5077448;28;19908;-91
2022/02/04 17:49:54;;;;;;;;;;;;;;;;;;5077663;28;19933;-91
2022/02/04 17:52:23;;;;;;;;;;;;;;;;;;5077221;28;19908;-92
2022/02/04 17:55:00;;;;;;;;;;;;;;;;;;5057819;28;20007;-91
2022/02/04 17:57:42;;;;;;;;;;;;;;;;;;5074354;28;19909;-92
2022/02/04 18:00:18;;;;;;;;;;;;;;;;;;5062835;28;19916;-92
2022/02/04 18:02:57;;;;;;;;;;;;;;;;;;5085546;28;19912;-88
2022/02/04 18:05:37;;;;;;;;;;;;;;;;;;5059630;28;20398;-89
2022/02/04 18:08:02;;;;;;;;;;;;;;;;;;5073234;28;19913;-89
2022/02/04 18:10:28;;;;;;;;;;;;;;;;;;5081303;28;19913;-89
2022/02/04 18:12:53;;;;;;;;;;;;;;;;;;5078360;28;19938;-89
2022/02/04 18:15:18;;;;;;;;;;;;;;;;;;5075952;28;19918;-89
2022/02/04 18:17:43;;;;;;;;;;;;;;;;;;5069955;28;19912;-88
2022/02/04 18:20:09;;;;;;;;;;;;;;;;;;5090008;28;20347;-89
2022/02/04 18:22:35;;;;;;;;;;;;;;;;;;5091027;28;19912;-89
2022/02/04 18:25:00;;;;;;;;;;;;;;;;;;5071253;28;20414;-88
2022/02/04 18:27:25;;;;;;;;;;;;;;;;;;5080651;28;20283;-89
2022/02/04 18:29:54;;;;;;;;;;;;;;;;;;5088692;28;19908;-89
2022/02/04 18:32:20;;;;;;;;;;;;;;;;;;5064568;28;19912;-89
2022/02/04 18:34:45;;;;;;;;;;;;;;;;;;5073831;28;20053;-89
2022/02/04 18:37:10;;;;;;;;;;;;;;;;;;5056367;28;20011;-89
2022/02/04 18:45:04;;;;;;;;;;;;;;;;;;5039730;28;19915;-89
2022/02/04 18:47:47;;;;;;;;;;;;;;;;;;5078923;28;19998;-90
2022/02/04 18:58:10;;;;;;;;;;;;;;;;;;5081236;28;19955;-88
2022/02/04 19:00:35;;;;;;;;;;;;;;;;;;5072326;28;19912;-89
2022/02/04 19:03:04;;;;;;;;;;;;;;;;;;5073941;28;19919;-88
2022/02/04 19:05:35;;;;;;;;;;;;;;;;;;5073979;28;19919;-89
2022/02/04 19:08:07;;;;;;;;;;;;;;;;;;5092063;28;20371;-89
2022/02/04 19:10:35;;;;;;;;;;;;;;;;;;5074597;28;19919;-89
2022/02/04 19:13:06;;;;;;;;;;;;;;;;;;5066622;28;19913;-88
2022/02/04 19:18:07;;;;;;;;;;;;;;;;;;5089523;28;19937;-89
2022/02/04 19:23:01;;;;;;;;;;;;;;;;;;5079525;28;19915;-89
2022/02/04 19:25:30;;;;;;;;;;;;;;;;;;5078079;28;19912;-88
2022/02/04 19:27:55;;;;;;;;;;;;;;;;;;5065419;28;19919;-88
2022/02/04 19:30:20;;;;;;;;;;;;;;;;;;5075161;28;19908;-89
2022/02/04 19:32:45;;;;;;;;;;;;;;;;;;5060365;28;19996;-89
2022/02/04 19:35:10;;;;;;;;;;;;;;;;;;5085944;28;19925;-89
2022/02/04 19:37:35;;;;;;;;;;;;;;;;;;5060968;28;19913;-88
2022/02/04 19:40:00;;;;;;;;;;;;;;;;;;5077653;28;19916;-88
2022/02/04 19:42:29;;;;;;;;;;;;;;;;;;5086940;28;19965;-89
2022/02/04 19:45:06;;;;;;;;;;;;;;;;;;5079462;28;19915;-90
2022/02/04 19:47:35;;;;;;;;;;;;;;;;;;5079307;28;19915;-89
2022/02/04 20:25:13;;;;;;;;;;;;;;;;;;5049838;28;19912;-89
2022/02/04 20:27:41;;;;;;;;;;;;;;;;;;5078545;28;19912;-89
2022/02/04 20:30:06;;;;;;;;;;;;;;;;;;5068257;28;19916;-90
2022/02/04 20:32:31;;;;;;;;;;;;;;;;;;5075233;28;19954;-89
2022/02/04 20:34:56;;;;;;;;;;;;;;;;;;5076526;28;19947;-89
2022/02/04 20:37:22;;;;;;;;;;;;;;;;;;5074940;28;19912;-89
2022/02/04 20:42:32;;;;;;;;;;;;;;;;;;5096645;28;19919;-89
2022/02/04 20:44:57;;;;;;;;;;;;;;;;;;5063009;28;19920;-89
2022/02/04 20:47:23;;;;;;;;;;;;;;;;;;5074614;28;19939;-89
2022/02/04 20:49:48;;;;;;;;;;;;;;;;;;5074391;28;20392;-89
2022/02/04 20:52:14;;;;;;;;;;;;;;;;;;5070920;28;19956;-89
2022/02/04 20:54:39;;;;;;;;;;;;;;;;;;5078195;28;20007;-90
2022/02/04 20:57:04;;;;;;;;;;;;;;;;;;5060480;28;19908;-89
2022/02/04 20:59:29;;;;;;;;;;;;;;;;;;5076261;28;19913;-90
2022/02/04 21:01:54;;;;;;;;;;;;;;;;;;5091190;28;19948;-89
2022/02/04 21:04:21;;;;;;;;;;;;;;;;;;5091571;28;19919;-89
2022/02/04 21:06:52;;;;;;;;;;;;;;;;;;5106000;28;19943;-89
2022/02/04 21:14:42;;;;;;;;;;;;;;;;;;5091172;28;19954;-89
2022/02/04 21:17:07;;;;;;;;;;;;;;;;;;5077336;28;19958;-88
2022/02/04 21:19:33;;;;;;;;;;;;;;;;;;5077184;28;19920;-89
2022/02/04 21:21:58;;;;;;;;;;;;;;;;;;5066343;28;20368;-88
2022/02/04 21:24:23;;;;;;;;;;;;;;;;;;5070899;28;20363;-89
2022/02/04 21:26:52;;;;;;;;;;;;;;;;;;5076561;28;19909;-89
2022/02/04 21:29:17;;;;;;;;;;;;;;;;;;5066148;28;20054;-89
2022/02/04 21:31:45;;;;;;;;;;;;;;;;;;5088627;28;19954;-89
2022/02/04 21:36:54;;;;;;;;;;;;;;;;;;5084902;28;20356;-89
2022/02/04 21:37:03;;;;;;;;;;;;;;;;;;5075050;28;20379;-88
2022/02/04 21:39:28;;;;;;;;;;;;;;;;;;5086489;28;20380;-88
2022/02/04 21:41:54;;;;;;;;;;;;;;;;;;5108352;28;19916;-88
2022/02/04 21:44:19;;;;;;;;;;;;;;;;;;5090983;28;19912;-89
2022/02/04 21:46:44;;;;;;;;;;;;;;;;;;5073651;28;19916;-88
2022/02/04 21:49:09;;;;;;;;;;;;;;;;;;5074390;28;19916;-88
2022/02/04 21:51:37;;;;;;;;;;;;;;;;;;5074737;28;19908;-88
2022/02/04 21:54:02;;;;;;;;;;;;;;;;;;5074581;28;20283;-89
2022/02/04 21:56:27;;;;;;;;;;;;;;;;;;5073166;28;20360;-89
2022/02/04 21:58:52;;;;;;;;;;;;;;;;;;5062364;28;20384;-89
2022/02/04 22:01:17;;;;;;;;;;;;;;;;;;5061389;28;19917;-88
2022/02/04 22:03:43;;;;;;;;;;;;;;;;;;5089258;28;19919;-90
2022/02/04 22:06:08;;;;;;;;;;;;;;;;;;5096829;28;19934;-88
2022/02/04 22:16:56;;;;;;;;;;;;;;;;;;5076357;28;19924;-88
2022/02/04 22:22:16;;;;;;;;;;;;;;;;;;5044601;28;19916;-88
2022/02/04 22:24:41;;;;;;;;;;;;;;;;;;5056155;28;19909;-89
2022/02/04 22:27:09;;;;;;;;;;;;;;;;;;5056725;28;19908;-89
2022/02/04 22:29:39;;;;;;;;;;;;;;;;;;5076137;28;19909;-89
2022/02/04 22:32:11;;;;;;;;;;;;;;;;;;5068059;28;20007;-89
2022/02/04 22:34:59;;;;;;;;;;;;;;;;;;5087921;28;20329;-89
2022/02/04 22:42:41;;;;;;;;;;;;;;;;;;5094325;28;19916;-89
2022/02/04 22:46:03;;;;;;;;;;;;;;;;;;5067978;28;19920;-89
2022/02/04 22:50:32;;;;;;;;;;;;;;;;;;5077789;28;19913;-89
2022/02/04 22:58:27;;;;;;;;;;;;;;;;;;5094035;28;20342;-90
2022/02/04 23:00:52;;;;;;;;;;;;;;;;;;5075981;28;19916;-89
2022/02/04 23:03:24;;;;;;;;;;;;;;;;;;5075735;28;20031;-89
2022/02/04 23:05:49;;;;;;;;;;;;;;;;;;5075462;28;20003;-89
2022/02/04 23:08:20;;;;;;;;;;;;;;;;;;5075716;28;20335;-89
2022/02/04 23:10:45;;;;;;;;;;;;;;;;;;5075631;28;19916;-89
2022/02/04 23:13:35;;;;;;;;;;;;;;;;;;5067909;28;20007;-89
2022/02/04 23:16:09;;;;;;;;;;;;;;;;;;5057323;28;19920;-88
2022/02/04 23:18:40;;;;;;;;;;;;;;;;;;5076525;28;19938;-88
2022/02/04 23:21:08;;;;;;;;;;;;;;;;;;5085735;28;19924;-89
2022/02/04 23:23:36;;;;;;;;;;;;;;;;;;5093197;28;20386;-89
2022/02/04 23:26:07;;;;;;;;;;;;;;;;;;5090031;28;19916;-89
2022/02/04 23:45:06;;;;;;;;;;;;;;;;;;5080881;28;20378;-89
2022/02/04 23:49:59;;;;;;;;;;;;;;;;;;5083311;28;20003;-89
2022/02/04 23:52:24;;;;;;;;;;;;;;;;;;5073358;28;19955;-89
2022/02/04 23:54:49;;;;;;;;;;;;;;;;;;5073574;28;19943;-89
2022/02/04 23:57:18;;;;;;;;;;;;;;;;;;5061933;28;19913;-89
